sensor_id;sensor_type;location;lat;lon;timestamp;temperature;humidity
6118;DHT22;3089;48.202;11.510;2023-01-08T00:01:03;3.20;99.90
6118;DHT22;3089;48.202;11.510;2023-01-08T00:03:31;3.30;99.90
6118;DHT22;3089;48.202;11.510;2023-01-08T00:06:00;3.30;99.90
6118;DHT22;3089;48.202;11.510;2023-01-08T00:08:30;3.30;99.90
6118;DHT22;3089;48.202;11.510;2023-01-08T00:10:59;3.30;99.90
6118;DHT22;3089;48.202;11.510;2023-01-08T00:13:27;3.20;99.90
6118;DHT22;3089;48.202;11.510;2023-01-08T00:15:55;3.30;99.90
6118;DHT22;3089;48.202;11.510;2023-01-08T00:18:23;3.30;99.90
6118;DHT22;3089;48.202;11.510;2023-01-08T00:20:53;3.20;99.90
6118;DHT22;3089;48.202;11.510;2023-01-08T00:23:20;3.30;99.90
6118;DHT22;3089;48.202;11.510;2023-01-08T00:25:50;3.20;99.90
6118;DHT22;3089;48.202;11.510;2023-01-08T00:28:18;3.20;99.90
6118;DHT22;3089;48.202;11.510;2023-01-08T00:30:46;3.20;99.90
6118;DHT22;3089;48.202;11.510;2023-01-08T00:33:15;3.20;99.90
6118;DHT22;3089;48.202;11.510;2023-01-08T00:35:44;3.20;99.90
6118;DHT22;3089;48.202;11.510;2023-01-08T00:38:11;3.20;99.90
6118;DHT22;3089;48.202;11.510;2023-01-08T00:40:39;3.20;99.90
6118;DHT22;3089;48.202;11.510;2023-01-08T00:43:09;3.20;99.90
6118;DHT22;3089;48.202;11.510;2023-01-08T00:45:36;3.20;99.90
6118;DHT22;3089;48.202;11.510;2023-01-08T00:48:05;3.20;99.90
6118;DHT22;3089;48.202;11.510;2023-01-08T00:50:33;3.10;99.90
6118;DHT22;3089;48.202;11.510;2023-01-08T00:53:00;3.10;99.90
6118;DHT22;3089;48.202;11.510;2023-01-08T00:55:29;3.10;99.90
6118;DHT22;3089;48.202;11.510;2023-01-08T00:57:57;3.10;99.90
6118;DHT22;3089;48.202;11.510;2023-01-08T01:00:26;3.10;99.90
6118;DHT22;3089;48.202;11.510;2023-01-08T01:02:54;3.10;99.90
6118;DHT22;3089;48.202;11.510;2023-01-08T01:05:22;3.10;99.90
6118;DHT22;3089;48.202;11.510;2023-01-08T01:07:50;3.10;99.90
6118;DHT22;3089;48.202;11.510;2023-01-08T01:10:18;3.10;99.90
6118;DHT22;3089;48.202;11.510;2023-01-08T01:12:46;3.20;99.90
6118;DHT22;3089;48.202;11.510;2023-01-08T01:15:16;3.10;99.90
6118;DHT22;3089;48.202;11.510;2023-01-08T01:17:45;3.10;99.90
6118;DHT22;3089;48.202;11.510;2023-01-08T01:20:14;3.00;99.90
6118;DHT22;3089;48.202;11.510;2023-01-08T01:22:42;3.00;99.90
6118;DHT22;3089;48.202;11.510;2023-01-08T01:25:10;3.00;99.90
6118;DHT22;3089;48.202;11.510;2023-01-08T01:27:38;3.00;99.90
6118;DHT22;3089;48.202;11.510;2023-01-08T01:30:07;2.90;99.90
6118;DHT22;3089;48.202;11.510;2023-01-08T01:32:35;2.90;99.90
6118;DHT22;3089;48.202;11.510;2023-01-08T01:35:05;2.90;99.90
6118;DHT22;3089;48.202;11.510;2023-01-08T01:37:33;2.90;99.90
6118;DHT22;3089;48.202;11.510;2023-01-08T01:40:01;2.80;99.90
6118;DHT22;3089;48.202;11.510;2023-01-08T01:42:29;2.90;99.90
6118;DHT22;3089;48.202;11.510;2023-01-08T01:45:14;2.90;99.90
6118;DHT22;3089;48.202;11.510;2023-01-08T01:47:45;2.80;99.90
6118;DHT22;3089;48.202;11.510;2023-01-08T01:50:19;2.80;99.90
6118;DHT22;3089;48.202;11.510;2023-01-08T01:52:50;2.80;99.90
6118;DHT22;3089;48.202;11.510;2023-01-08T01:55:19;2.70;99.90
6118;DHT22;3089;48.202;11.510;2023-01-08T01:57:51;2.70;99.90
6118;DHT22;3089;48.202;11.510;2023-01-08T02:00:20;2.70;99.90
6118;DHT22;3089;48.202;11.510;2023-01-08T02:02:49;2.70;99.90
6118;DHT22;3089;48.202;11.510;2023-01-08T02:05:18;2.70;99.90
6118;DHT22;3089;48.202;11.510;2023-01-08T02:07:50;2.70;99.90
6118;DHT22;3089;48.202;11.510;2023-01-08T02:10:29;2.70;99.90
6118;DHT22;3089;48.202;11.510;2023-01-08T02:13:04;2.70;99.90
6118;DHT22;3089;48.202;11.510;2023-01-08T02:15:41;2.70;99.90
6118;DHT22;3089;48.202;11.510;2023-01-08T02:18:14;2.70;99.90
6118;DHT22;3089;48.202;11.510;2023-01-08T02:20:48;2.70;99.90
6118;DHT22;3089;48.202;11.510;2023-01-08T02:23:24;2.60;99.90
6118;DHT22;3089;48.202;11.510;2023-01-08T02:26:02;2.60;99.90
6118;DHT22;3089;48.202;11.510;2023-01-08T02:28:32;2.60;99.90
6118;DHT22;3089;48.202;11.510;2023-01-08T02:31:01;2.60;99.90
6118;DHT22;3089;48.202;11.510;2023-01-08T02:33:29;2.60;99.90
6118;DHT22;3089;48.202;11.510;2023-01-08T02:42:15;2.50;99.90
6118;DHT22;3089;48.202;11.510;2023-01-08T02:45:00;2.50;99.90
6118;DHT22;3089;48.202;11.510;2023-01-08T02:47:32;2.60;99.90
6118;DHT22;3089;48.202;11.510;2023-01-08T02:50:14;2.50;99.90
6118;DHT22;3089;48.202;11.510;2023-01-08T02:52:54;2.50;99.90
6118;DHT22;3089;48.202;11.510;2023-01-08T02:55:25;2.50;99.90
6118;DHT22;3089;48.202;11.510;2023-01-08T02:57:55;2.50;99.90
6118;DHT22;3089;48.202;11.510;2023-01-08T03:00:25;2.50;99.90
6118;DHT22;3089;48.202;11.510;2023-01-08T03:03:03;2.50;99.90
6118;DHT22;3089;48.202;11.510;2023-01-08T03:05:32;2.50;99.90
6118;DHT22;3089;48.202;11.510;2023-01-08T03:08:03;2.50;99.90
6118;DHT22;3089;48.202;11.510;2023-01-08T03:10:32;2.40;99.90
6118;DHT22;3089;48.202;11.510;2023-01-08T03:13:04;2.40;99.90
6118;DHT22;3089;48.202;11.510;2023-01-08T03:15:36;2.40;99.90
6118;DHT22;3089;48.202;11.510;2023-01-08T03:18:11;2.40;99.90
6118;DHT22;3089;48.202;11.510;2023-01-08T03:20:40;2.40;99.90
6118;DHT22;3089;48.202;11.510;2023-01-08T03:23:09;2.40;99.90
6118;DHT22;3089;48.202;11.510;2023-01-08T03:25:40;2.30;99.90
6118;DHT22;3089;48.202;11.510;2023-01-08T03:28:13;2.30;99.90
6118;DHT22;3089;48.202;11.510;2023-01-08T03:30:43;2.30;99.90
6118;DHT22;3089;48.202;11.510;2023-01-08T03:33:12;2.30;99.90
6118;DHT22;3089;48.202;11.510;2023-01-08T03:35:44;2.30;99.90
6118;DHT22;3089;48.202;11.510;2023-01-08T03:38:16;2.30;99.90
6118;DHT22;3089;48.202;11.510;2023-01-08T03:40:48;2.30;99.90
6118;DHT22;3089;48.202;11.510;2023-01-08T03:43:19;2.30;99.90
6118;DHT22;3089;48.202;11.510;2023-01-08T03:45:49;2.30;99.90
6118;DHT22;3089;48.202;11.510;2023-01-08T03:48:19;2.30;99.90
6118;DHT22;3089;48.202;11.510;2023-01-08T03:50:47;2.20;99.90
6118;DHT22;3089;48.202;11.510;2023-01-08T03:53:15;2.20;99.90
6118;DHT22;3089;48.202;11.510;2023-01-08T03:55:43;2.20;99.90
6118;DHT22;3089;48.202;11.510;2023-01-08T03:58:11;2.20;99.90
6118;DHT22;3089;48.202;11.510;2023-01-08T04:00:40;2.20;99.90
6118;DHT22;3089;48.202;11.510;2023-01-08T04:03:08;2.10;99.90
6118;DHT22;3089;48.202;11.510;2023-01-08T04:05:36;2.10;99.90
6118;DHT22;3089;48.202;11.510;2023-01-08T04:08:04;2.20;99.90
6118;DHT22;3089;48.202;11.510;2023-01-08T04:10:32;2.10;99.90
6118;DHT22;3089;48.202;11.510;2023-01-08T04:13:00;2.10;99.90
6118;DHT22;3089;48.202;11.510;2023-01-08T04:15:28;2.10;99.90
6118;DHT22;3089;48.202;11.510;2023-01-08T04:17:57;2.10;99.90
6118;DHT22;3089;48.202;11.510;2023-01-08T04:20:25;2.20;99.90
6118;DHT22;3089;48.202;11.510;2023-01-08T04:22:53;2.10;99.90
6118;DHT22;3089;48.202;11.510;2023-01-08T04:25:20;2.10;99.90
6118;DHT22;3089;48.202;11.510;2023-01-08T04:27:48;2.10;99.90
6118;DHT22;3089;48.202;11.510;2023-01-08T04:30:16;2.10;99.90
6118;DHT22;3089;48.202;11.510;2023-01-08T04:32:44;2.10;99.90
6118;DHT22;3089;48.202;11.510;2023-01-08T04:35:13;2.10;99.90
6118;DHT22;3089;48.202;11.510;2023-01-08T04:37:41;2.10;99.90
6118;DHT22;3089;48.202;11.510;2023-01-08T04:40:10;2.00;99.90
6118;DHT22;3089;48.202;11.510;2023-01-08T04:42:38;2.00;99.90
6118;DHT22;3089;48.202;11.510;2023-01-08T04:45:07;2.00;99.90
6118;DHT22;3089;48.202;11.510;2023-01-08T04:47:35;2.00;99.90
6118;DHT22;3089;48.202;11.510;2023-01-08T04:50:03;2.00;99.90
6118;DHT22;3089;48.202;11.510;2023-01-08T04:52:32;2.00;99.90
6118;DHT22;3089;48.202;11.510;2023-01-08T04:55:00;2.00;99.90
6118;DHT22;3089;48.202;11.510;2023-01-08T04:57:28;2.00;99.90
6118;DHT22;3089;48.202;11.510;2023-01-08T04:59:56;2.00;99.90
6118;DHT22;3089;48.202;11.510;2023-01-08T05:02:24;2.00;99.90
6118;DHT22;3089;48.202;11.510;2023-01-08T05:04:52;2.00;99.90
6118;DHT22;3089;48.202;11.510;2023-01-08T05:07:19;2.00;99.90
6118;DHT22;3089;48.202;11.510;2023-01-08T05:09:49;2.00;99.90
6118;DHT22;3089;48.202;11.510;2023-01-08T05:12:17;2.00;99.90
6118;DHT22;3089;48.202;11.510;2023-01-08T05:14:44;1.90;99.90
6118;DHT22;3089;48.202;11.510;2023-01-08T05:17:12;1.90;99.90
6118;DHT22;3089;48.202;11.510;2023-01-08T05:19:40;1.90;99.90
6118;DHT22;3089;48.202;11.510;2023-01-08T05:22:08;1.90;99.90
6118;DHT22;3089;48.202;11.510;2023-01-08T05:24:36;1.90;99.90
6118;DHT22;3089;48.202;11.510;2023-01-08T05:27:05;1.90;99.90
6118;DHT22;3089;48.202;11.510;2023-01-08T05:29:33;1.90;99.90
6118;DHT22;3089;48.202;11.510;2023-01-08T05:32:01;1.90;99.90
6118;DHT22;3089;48.202;11.510;2023-01-08T05:34:28;1.90;99.90
6118;DHT22;3089;48.202;11.510;2023-01-08T05:36:56;1.90;99.90
6118;DHT22;3089;48.202;11.510;2023-01-08T05:39:24;1.90;99.90
6118;DHT22;3089;48.202;11.510;2023-01-08T05:41:52;1.90;99.90
6118;DHT22;3089;48.202;11.510;2023-01-08T05:44:21;1.80;99.90
6118;DHT22;3089;48.202;11.510;2023-01-08T05:46:49;1.80;99.90
6118;DHT22;3089;48.202;11.510;2023-01-08T05:49:19;1.80;99.90
6118;DHT22;3089;48.202;11.510;2023-01-08T05:51:47;1.80;99.90
6118;DHT22;3089;48.202;11.510;2023-01-08T05:54:15;1.90;99.90
6118;DHT22;3089;48.202;11.510;2023-01-08T05:56:43;1.90;99.90
6118;DHT22;3089;48.202;11.510;2023-01-08T05:59:12;1.90;99.90
6118;DHT22;3089;48.202;11.510;2023-01-08T06:01:41;1.80;99.90
6118;DHT22;3089;48.202;11.510;2023-01-08T06:04:09;1.80;99.90
6118;DHT22;3089;48.202;11.510;2023-01-08T06:06:37;1.80;99.90
6118;DHT22;3089;48.202;11.510;2023-01-08T06:09:05;1.80;99.90
6118;DHT22;3089;48.202;11.510;2023-01-08T06:11:32;1.80;99.90
6118;DHT22;3089;48.202;11.510;2023-01-08T06:14:00;1.80;99.90
6118;DHT22;3089;48.202;11.510;2023-01-08T06:16:28;1.80;99.90
6118;DHT22;3089;48.202;11.510;2023-01-08T06:18:57;1.80;99.90
6118;DHT22;3089;48.202;11.510;2023-01-08T06:21:25;1.70;99.90
6118;DHT22;3089;48.202;11.510;2023-01-08T06:23:53;1.80;99.90
6118;DHT22;3089;48.202;11.510;2023-01-08T06:26:21;1.70;99.90
6118;DHT22;3089;48.202;11.510;2023-01-08T06:28:48;1.70;99.90
6118;DHT22;3089;48.202;11.510;2023-01-08T06:31:16;1.70;99.90
6118;DHT22;3089;48.202;11.510;2023-01-08T06:33:44;1.80;99.90
6118;DHT22;3089;48.202;11.510;2023-01-08T06:36:13;1.70;99.90
6118;DHT22;3089;48.202;11.510;2023-01-08T06:38:41;1.70;99.90
6118;DHT22;3089;48.202;11.510;2023-01-08T06:41:11;1.70;99.90
6118;DHT22;3089;48.202;11.510;2023-01-08T06:43:39;1.70;99.90
6118;DHT22;3089;48.202;11.510;2023-01-08T06:46:07;1.70;99.90
6118;DHT22;3089;48.202;11.510;2023-01-08T06:48:36;1.70;99.90
6118;DHT22;3089;48.202;11.510;2023-01-08T06:51:04;1.70;99.90
6118;DHT22;3089;48.202;11.510;2023-01-08T06:53:34;1.70;99.90
6118;DHT22;3089;48.202;11.510;2023-01-08T06:56:02;1.80;99.90
6118;DHT22;3089;48.202;11.510;2023-01-08T06:58:30;1.80;99.90
6118;DHT22;3089;48.202;11.510;2023-01-08T07:00:58;1.70;99.90
6118;DHT22;3089;48.202;11.510;2023-01-08T07:03:25;1.70;99.90
6118;DHT22;3089;48.202;11.510;2023-01-08T07:05:54;1.70;99.90
6118;DHT22;3089;48.202;11.510;2023-01-08T07:08:22;1.70;99.90
6118;DHT22;3089;48.202;11.510;2023-01-08T07:10:51;1.70;99.90
6118;DHT22;3089;48.202;11.510;2023-01-08T07:13:19;1.70;99.90
6118;DHT22;3089;48.202;11.510;2023-01-08T07:15:48;1.70;99.90
6118;DHT22;3089;48.202;11.510;2023-01-08T07:18:16;1.70;99.90
6118;DHT22;3089;48.202;11.510;2023-01-08T07:20:43;1.70;99.90
6118;DHT22;3089;48.202;11.510;2023-01-08T07:23:11;1.80;99.90
6118;DHT22;3089;48.202;11.510;2023-01-08T07:25:39;1.70;99.90
6118;DHT22;3089;48.202;11.510;2023-01-08T07:28:10;1.60;99.90
6118;DHT22;3089;48.202;11.510;2023-01-08T07:30:39;1.60;99.90
6118;DHT22;3089;48.202;11.510;2023-01-08T07:33:06;1.70;99.90
6118;DHT22;3089;48.202;11.510;2023-01-08T07:35:34;1.70;99.90
6118;DHT22;3089;48.202;11.510;2023-01-08T07:38:04;1.70;99.90
6118;DHT22;3089;48.202;11.510;2023-01-08T07:40:32;1.70;99.90
6118;DHT22;3089;48.202;11.510;2023-01-08T07:43:02;1.70;99.90
6118;DHT22;3089;48.202;11.510;2023-01-08T07:45:32;1.80;99.90
6118;DHT22;3089;48.202;11.510;2023-01-08T07:47:59;1.80;99.90
6118;DHT22;3089;48.202;11.510;2023-01-08T07:50:27;1.80;99.90
6118;DHT22;3089;48.202;11.510;2023-01-08T07:52:58;1.80;99.90
6118;DHT22;3089;48.202;11.510;2023-01-08T07:55:28;1.70;99.90
6118;DHT22;3089;48.202;11.510;2023-01-08T07:57:56;1.70;99.90
6118;DHT22;3089;48.202;11.510;2023-01-08T08:00:24;1.70;99.90
6118;DHT22;3089;48.202;11.510;2023-01-08T08:02:53;1.40;99.90
6118;DHT22;3089;48.202;11.510;2023-01-08T08:05:22;1.50;99.90
6118;DHT22;3089;48.202;11.510;2023-01-08T08:07:49;1.70;99.90
6118;DHT22;3089;48.202;11.510;2023-01-08T08:10:17;1.80;99.90
6118;DHT22;3089;48.202;11.510;2023-01-08T08:12:45;1.80;99.90
6118;DHT22;3089;48.202;11.510;2023-01-08T08:15:13;1.90;99.90
6118;DHT22;3089;48.202;11.510;2023-01-08T08:17:44;1.90;99.90
6118;DHT22;3089;48.202;11.510;2023-01-08T08:20:13;1.90;99.90
6118;DHT22;3089;48.202;11.510;2023-01-08T08:22:41;1.90;99.90
6118;DHT22;3089;48.202;11.510;2023-01-08T08:25:09;1.90;99.90
6118;DHT22;3089;48.202;11.510;2023-01-08T08:27:37;2.00;99.90
6118;DHT22;3089;48.202;11.510;2023-01-08T08:30:07;2.00;99.90
6118;DHT22;3089;48.202;11.510;2023-01-08T08:32:35;2.10;99.90
6118;DHT22;3089;48.202;11.510;2023-01-08T08:35:03;2.00;99.90
6118;DHT22;3089;48.202;11.510;2023-01-08T08:37:32;2.00;99.90
6118;DHT22;3089;48.202;11.510;2023-01-08T08:40:00;2.10;99.90
6118;DHT22;3089;48.202;11.510;2023-01-08T08:42:28;2.10;99.90
6118;DHT22;3089;48.202;11.510;2023-01-08T08:44:56;2.10;99.90
6118;DHT22;3089;48.202;11.510;2023-01-08T08:47:24;2.00;99.90
6118;DHT22;3089;48.202;11.510;2023-01-08T08:49:52;2.00;99.90
6118;DHT22;3089;48.202;11.510;2023-01-08T08:52:20;2.10;99.90
6118;DHT22;3089;48.202;11.510;2023-01-08T08:54:49;2.00;99.90
6118;DHT22;3089;48.202;11.510;2023-01-08T08:57:17;2.00;99.90
6118;DHT22;3089;48.202;11.510;2023-01-08T08:59:44;2.10;99.90
6118;DHT22;3089;48.202;11.510;2023-01-08T09:02:12;2.00;99.90
6118;DHT22;3089;48.202;11.510;2023-01-08T09:04:40;2.10;99.90
6118;DHT22;3089;48.202;11.510;2023-01-08T09:07:08;2.10;99.90
6118;DHT22;3089;48.202;11.510;2023-01-08T09:09:36;2.20;99.90
6118;DHT22;3089;48.202;11.510;2023-01-08T09:12:06;2.10;99.90
6118;DHT22;3089;48.202;11.510;2023-01-08T09:14:34;2.10;99.90
6118;DHT22;3089;48.202;11.510;2023-01-08T09:17:02;2.20;99.90
6118;DHT22;3089;48.202;11.510;2023-01-08T09:19:30;2.30;99.90
6118;DHT22;3089;48.202;11.510;2023-01-08T09:21:57;2.40;99.90
6118;DHT22;3089;48.202;11.510;2023-01-08T09:24:25;2.50;99.90
6118;DHT22;3089;48.202;11.510;2023-01-08T09:26:53;2.50;99.90
6118;DHT22;3089;48.202;11.510;2023-01-08T09:29:22;2.40;99.90
6118;DHT22;3089;48.202;11.510;2023-01-08T09:31:50;2.30;99.90
6118;DHT22;3089;48.202;11.510;2023-01-08T09:34:18;2.30;99.90
6118;DHT22;3089;48.202;11.510;2023-01-08T09:36:46;2.30;99.90
6118;DHT22;3089;48.202;11.510;2023-01-08T09:39:14;2.30;99.90
6118;DHT22;3089;48.202;11.510;2023-01-08T09:41:44;2.40;99.90
6118;DHT22;3089;48.202;11.510;2023-01-08T09:44:14;2.40;99.90
6118;DHT22;3089;48.202;11.510;2023-01-08T09:46:46;2.60;99.90
6118;DHT22;3089;48.202;11.510;2023-01-08T09:49:20;2.70;99.90
6118;DHT22;3089;48.202;11.510;2023-01-08T09:51:51;2.90;99.90
6118;DHT22;3089;48.202;11.510;2023-01-08T09:54:21;3.00;99.90
6118;DHT22;3089;48.202;11.510;2023-01-08T09:56:51;3.50;99.90
6118;DHT22;3089;48.202;11.510;2023-01-08T09:59:19;4.00;99.90
6118;DHT22;3089;48.202;11.510;2023-01-08T10:01:49;4.20;99.90
6118;DHT22;3089;48.202;11.510;2023-01-08T10:04:20;4.20;99.90
6118;DHT22;3089;48.202;11.510;2023-01-08T10:06:51;4.20;99.90
6118;DHT22;3089;48.202;11.510;2023-01-08T10:09:23;4.20;99.90
6118;DHT22;3089;48.202;11.510;2023-01-08T10:11:53;4.30;99.90
6118;DHT22;3089;48.202;11.510;2023-01-08T10:14:24;4.30;99.90
6118;DHT22;3089;48.202;11.510;2023-01-08T10:16:56;4.20;99.90
6118;DHT22;3089;48.202;11.510;2023-01-08T10:19:25;4.00;99.90
6118;DHT22;3089;48.202;11.510;2023-01-08T10:21:53;4.10;99.90
6118;DHT22;3089;48.202;11.510;2023-01-08T10:24:31;4.10;99.90
6118;DHT22;3089;48.202;11.510;2023-01-08T10:27:07;4.20;99.90
6118;DHT22;3089;48.202;11.510;2023-01-08T10:29:36;4.40;99.90
6118;DHT22;3089;48.202;11.510;2023-01-08T10:32:11;4.90;99.90
6118;DHT22;3089;48.202;11.510;2023-01-08T10:34:44;4.90;99.90
6118;DHT22;3089;48.202;11.510;2023-01-08T10:37:21;5.00;99.90
6118;DHT22;3089;48.202;11.510;2023-01-08T10:39:51;5.20;99.90
6118;DHT22;3089;48.202;11.510;2023-01-08T10:42:20;5.10;99.90
6118;DHT22;3089;48.202;11.510;2023-01-08T10:44:54;5.10;99.90
6118;DHT22;3089;48.202;11.510;2023-01-08T10:47:27;5.30;99.90
6118;DHT22;3089;48.202;11.510;2023-01-08T10:49:56;5.90;99.90
6118;DHT22;3089;48.202;11.510;2023-01-08T10:52:28;5.70;99.90
6118;DHT22;3089;48.202;11.510;2023-01-08T10:55:11;5.50;99.90
6118;DHT22;3089;48.202;11.510;2023-01-08T10:57:52;5.20;99.90
6118;DHT22;3089;48.202;11.510;2023-01-08T11:00:25;5.00;99.90
6118;DHT22;3089;48.202;11.510;2023-01-08T11:02:59;4.80;99.90
6118;DHT22;3089;48.202;11.510;2023-01-08T11:05:32;5.10;99.90
6118;DHT22;3089;48.202;11.510;2023-01-08T11:08:03;5.30;99.90
6118;DHT22;3089;48.202;11.510;2023-01-08T11:10:33;5.40;99.90
6118;DHT22;3089;48.202;11.510;2023-01-08T11:13:05;5.50;99.90
6118;DHT22;3089;48.202;11.510;2023-01-08T11:15:37;5.80;99.90
6118;DHT22;3089;48.202;11.510;2023-01-08T11:18:13;5.80;99.90
6118;DHT22;3089;48.202;11.510;2023-01-08T11:20:41;5.80;99.90
6118;DHT22;3089;48.202;11.510;2023-01-08T11:23:16;5.90;99.90
6118;DHT22;3089;48.202;11.510;2023-01-08T11:25:50;6.00;99.90
6118;DHT22;3089;48.202;11.510;2023-01-08T11:28:24;6.20;99.90
6118;DHT22;3089;48.202;11.510;2023-01-08T11:31:02;6.00;99.90
6118;DHT22;3089;48.202;11.510;2023-01-08T11:33:35;6.30;99.90
6118;DHT22;3089;48.202;11.510;2023-01-08T11:36:10;6.30;99.90
6118;DHT22;3089;48.202;11.510;2023-01-08T11:38:40;6.40;99.90
6118;DHT22;3089;48.202;11.510;2023-01-08T11:41:19;6.30;99.90
6118;DHT22;3089;48.202;11.510;2023-01-08T11:44:03;6.20;99.90
6118;DHT22;3089;48.202;11.510;2023-01-08T11:46:41;6.20;99.90
6118;DHT22;3089;48.202;11.510;2023-01-08T11:49:25;5.70;99.90
6118;DHT22;3089;48.202;11.510;2023-01-08T11:52:17;5.60;99.90
6118;DHT22;3089;48.202;11.510;2023-01-08T11:57:51;6.20;99.90
6118;DHT22;3089;48.202;11.510;2023-01-08T12:00:42;6.00;99.90
6118;DHT22;3089;48.202;11.510;2023-01-08T12:03:20;6.10;99.90
6118;DHT22;3089;48.202;11.510;2023-01-08T12:06:01;6.40;99.90
6118;DHT22;3089;48.202;11.510;2023-01-08T12:08:34;6.20;99.90
6118;DHT22;3089;48.202;11.510;2023-01-08T12:11:11;6.20;99.90
6118;DHT22;3089;48.202;11.510;2023-01-08T12:13:54;6.50;99.90
6118;DHT22;3089;48.202;11.510;2023-01-08T12:16:46;6.20;99.90
6118;DHT22;3089;48.202;11.510;2023-01-08T12:19:26;6.50;99.90
6118;DHT22;3089;48.202;11.510;2023-01-08T12:22:09;6.50;99.90
6118;DHT22;3089;48.202;11.510;2023-01-08T12:25:01;6.10;99.90
6118;DHT22;3089;48.202;11.510;2023-01-08T12:27:36;6.60;99.90
6118;DHT22;3089;48.202;11.510;2023-01-08T12:30:28;6.70;99.90
6118;DHT22;3089;48.202;11.510;2023-01-08T12:33:02;6.80;99.90
6118;DHT22;3089;48.202;11.510;2023-01-08T12:35:35;6.40;99.90
6118;DHT22;3089;48.202;11.510;2023-01-08T12:38:11;6.40;99.90
6118;DHT22;3089;48.202;11.510;2023-01-08T12:40:42;6.50;99.90
6118;DHT22;3089;48.202;11.510;2023-01-08T12:43:17;6.60;99.90
6118;DHT22;3089;48.202;11.510;2023-01-08T12:45:49;6.80;99.90
6118;DHT22;3089;48.202;11.510;2023-01-08T12:48:19;6.70;99.90
6118;DHT22;3089;48.202;11.510;2023-01-08T12:50:56;6.90;99.90
6118;DHT22;3089;48.202;11.510;2023-01-08T12:53:36;6.80;99.90
6118;DHT22;3089;48.202;11.510;2023-01-08T12:56:10;6.80;99.90
6118;DHT22;3089;48.202;11.510;2023-01-08T12:58:58;6.70;99.90
6118;DHT22;3089;48.202;11.510;2023-01-08T13:01:35;6.70;99.90
6118;DHT22;3089;48.202;11.510;2023-01-08T13:04:08;6.60;99.90
6118;DHT22;3089;48.202;11.510;2023-01-08T13:06:36;6.50;99.90
6118;DHT22;3089;48.202;11.510;2023-01-08T13:09:06;6.40;99.90
6118;DHT22;3089;48.202;11.510;2023-01-08T13:11:35;6.30;99.90
6118;DHT22;3089;48.202;11.510;2023-01-08T13:14:06;6.30;99.90
6118;DHT22;3089;48.202;11.510;2023-01-08T13:16:37;6.40;99.90
6118;DHT22;3089;48.202;11.510;2023-01-08T13:19:06;6.30;99.90
6118;DHT22;3089;48.202;11.510;2023-01-08T13:21:51;6.10;99.90
6118;DHT22;3089;48.202;11.510;2023-01-08T13:24:25;6.40;99.90
6118;DHT22;3089;48.202;11.510;2023-01-08T13:26:56;6.50;99.90
6118;DHT22;3089;48.202;11.510;2023-01-08T13:29:35;6.40;99.90
6118;DHT22;3089;48.202;11.510;2023-01-08T13:32:22;6.40;99.90
6118;DHT22;3089;48.202;11.510;2023-01-08T13:35:00;6.50;99.90
6118;DHT22;3089;48.202;11.510;2023-01-08T13:37:28;6.40;99.90
6118;DHT22;3089;48.202;11.510;2023-01-08T13:39:58;6.40;99.90
6118;DHT22;3089;48.202;11.510;2023-01-08T13:42:26;6.20;99.90
6118;DHT22;3089;48.202;11.510;2023-01-08T13:44:58;6.30;99.90
6118;DHT22;3089;48.202;11.510;2023-01-08T13:47:30;6.30;99.90
6118;DHT22;3089;48.202;11.510;2023-01-08T13:50:00;6.40;99.90
6118;DHT22;3089;48.202;11.510;2023-01-08T13:52:39;6.30;99.90
6118;DHT22;3089;48.202;11.510;2023-01-08T13:55:14;6.20;99.90
6118;DHT22;3089;48.202;11.510;2023-01-08T13:57:45;6.20;99.90
6118;DHT22;3089;48.202;11.510;2023-01-08T14:00:21;6.30;99.90
6118;DHT22;3089;48.202;11.510;2023-01-08T14:02:50;6.10;99.90
6118;DHT22;3089;48.202;11.510;2023-01-08T14:05:24;6.10;99.90
6118;DHT22;3089;48.202;11.510;2023-01-08T14:07:52;6.00;99.90
6118;DHT22;3089;48.202;11.510;2023-01-08T14:10:22;6.10;99.90
6118;DHT22;3089;48.202;11.510;2023-01-08T14:12:51;6.20;99.90
6118;DHT22;3089;48.202;11.510;2023-01-08T14:15:24;6.20;99.90
6118;DHT22;3089;48.202;11.510;2023-01-08T14:17:53;6.30;99.90
6118;DHT22;3089;48.202;11.510;2023-01-08T14:20:32;6.40;99.90
6118;DHT22;3089;48.202;11.510;2023-01-08T14:23:00;6.50;99.90
6118;DHT22;3089;48.202;11.510;2023-01-08T14:25:30;6.40;99.90
6118;DHT22;3089;48.202;11.510;2023-01-08T14:27:59;6.40;99.90
6118;DHT22;3089;48.202;11.510;2023-01-08T14:30:28;6.40;99.90
6118;DHT22;3089;48.202;11.510;2023-01-08T14:32:57;6.30;99.90
6118;DHT22;3089;48.202;11.510;2023-01-08T14:35:31;6.30;99.90
6118;DHT22;3089;48.202;11.510;2023-01-08T14:38:00;6.20;99.90
6118;DHT22;3089;48.202;11.510;2023-01-08T14:40:33;6.30;99.90
6118;DHT22;3089;48.202;11.510;2023-01-08T14:43:06;6.20;99.90
6118;DHT22;3089;48.202;11.510;2023-01-08T14:45:36;6.20;99.90
6118;DHT22;3089;48.202;11.510;2023-01-08T14:48:10;6.20;99.90
6118;DHT22;3089;48.202;11.510;2023-01-08T14:50:39;6.20;99.90
6118;DHT22;3089;48.202;11.510;2023-01-08T14:53:16;6.30;99.90
6118;DHT22;3089;48.202;11.510;2023-01-08T14:55:48;6.30;99.90
6118;DHT22;3089;48.202;11.510;2023-01-08T14:58:21;6.20;99.90
6118;DHT22;3089;48.202;11.510;2023-01-08T15:00:51;6.30;99.90
6118;DHT22;3089;48.202;11.510;2023-01-08T15:03:28;6.20;99.90
6118;DHT22;3089;48.202;11.510;2023-01-08T15:05:57;6.10;99.90
6118;DHT22;3089;48.202;11.510;2023-01-08T15:08:30;6.00;99.90
6118;DHT22;3089;48.202;11.510;2023-01-08T15:11:01;6.00;99.90
6118;DHT22;3089;48.202;11.510;2023-01-08T15:13:31;6.00;99.90
6118;DHT22;3089;48.202;11.510;2023-01-08T15:16:04;6.00;99.90
6118;DHT22;3089;48.202;11.510;2023-01-08T15:18:35;6.10;99.90
6118;DHT22;3089;48.202;11.510;2023-01-08T15:21:08;6.00;99.90
6118;DHT22;3089;48.202;11.510;2023-01-08T15:23:39;5.90;99.90
6118;DHT22;3089;48.202;11.510;2023-01-08T15:26:12;5.90;99.90
6118;DHT22;3089;48.202;11.510;2023-01-08T15:28:46;5.90;99.90
6118;DHT22;3089;48.202;11.510;2023-01-08T15:31:26;5.70;99.90
6118;DHT22;3089;48.202;11.510;2023-01-08T15:33:55;5.70;99.90
6118;DHT22;3089;48.202;11.510;2023-01-08T15:36:23;5.70;99.90
6118;DHT22;3089;48.202;11.510;2023-01-08T15:38:52;5.70;99.90
6118;DHT22;3089;48.202;11.510;2023-01-08T15:41:22;5.70;99.90
6118;DHT22;3089;48.202;11.510;2023-01-08T15:44:09;5.70;99.90
6118;DHT22;3089;48.202;11.510;2023-01-08T15:46:38;5.60;99.90
6118;DHT22;3089;48.202;11.510;2023-01-08T15:49:06;5.50;99.90
6118;DHT22;3089;48.202;11.510;2023-01-08T15:51:34;5.40;99.90
6118;DHT22;3089;48.202;11.510;2023-01-08T15:54:03;5.40;99.90
6118;DHT22;3089;48.202;11.510;2023-01-08T15:56:33;5.30;99.90
6118;DHT22;3089;48.202;11.510;2023-01-08T15:59:01;5.30;99.90
6118;DHT22;3089;48.202;11.510;2023-01-08T16:01:29;5.40;99.90
6118;DHT22;3089;48.202;11.510;2023-01-08T16:03:59;5.60;99.90
6118;DHT22;3089;48.202;11.510;2023-01-08T16:06:27;5.50;99.90
6118;DHT22;3089;48.202;11.510;2023-01-08T16:08:54;5.60;99.90
6118;DHT22;3089;48.202;11.510;2023-01-08T16:11:25;5.70;99.90
6118;DHT22;3089;48.202;11.510;2023-01-08T16:13:54;5.70;99.90
6118;DHT22;3089;48.202;11.510;2023-01-08T16:16:22;5.70;99.90
6118;DHT22;3089;48.202;11.510;2023-01-08T16:18:50;5.60;99.90
6118;DHT22;3089;48.202;11.510;2023-01-08T16:21:19;5.60;99.90
6118;DHT22;3089;48.202;11.510;2023-01-08T16:23:46;5.60;99.90
6118;DHT22;3089;48.202;11.510;2023-01-08T16:26:15;5.40;99.90
6118;DHT22;3089;48.202;11.510;2023-01-08T16:28:42;5.40;99.90
6118;DHT22;3089;48.202;11.510;2023-01-08T16:31:12;5.40;99.90
6118;DHT22;3089;48.202;11.510;2023-01-08T16:33:40;5.30;99.90